sensor_id;sensor_type;location;lat;lon;timestamp;P1;durP1;ratioP1;P2;durP2;ratioP2
55913;SDS011;58179;48.776;9.124;2023-08-06T00:01:05;28.58;;;14.07;;
55913;SDS011;58179;48.776;9.124;2023-08-06T00:03:31;29.45;;;14.07;;
55913;SDS011;58179;48.776;9.124;2023-08-06T00:05:57;27.35;;;13.20;;
55913;SDS011;58179;48.776;9.124;2023-08-06T00:08:25;28.98;;;13.80;;
55913;SDS011;58179;48.776;9.124;2023-08-06T00:10:51;31.73;;;14.48;;
55913;SDS011;58179;48.776;9.124;2023-08-06T00:13:17;33.58;;;15.77;;
55913;SDS011;58179;48.776;9.124;2023-08-06T00:15:44;28.92;;;14.10;;
55913;SDS011;58179;48.776;9.124;2023-08-06T00:18:10;33.88;;;14.52;;
55913;SDS011;58179;48.776;9.124;2023-08-06T00:20:38;31.73;;;14.95;;
55913;SDS011;58179;48.776;9.124;2023-08-06T00:23:05;29.25;;;13.60;;
55913;SDS011;58179;48.776;9.124;2023-08-06T00:25:33;34.97;;;15.02;;
55913;SDS011;58179;48.776;9.124;2023-08-06T00:27:59;34.35;;;15.07;;
55913;SDS011;58179;48.776;9.124;2023-08-06T00:30:25;30.02;;;14.25;;
55913;SDS011;58179;48.776;9.124;2023-08-06T00:32:51;26.00;;;12.88;;
55913;SDS011;58179;48.776;9.124;2023-08-06T00:35:18;26.57;;;14.17;;
55913;SDS011;58179;48.776;9.124;2023-08-06T00:37:44;26.45;;;12.45;;
55913;SDS011;58179;48.776;9.124;2023-08-06T00:40:10;28.10;;;12.38;;
55913;SDS011;58179;48.776;9.124;2023-08-06T00:42:37;28.15;;;14.18;;
55913;SDS011;58179;48.776;9.124;2023-08-06T00:45:04;34.93;;;15.27;;
55913;SDS011;58179;48.776;9.124;2023-08-06T00:47:31;26.80;;;12.70;;
55913;SDS011;58179;48.776;9.124;2023-08-06T00:49:57;31.08;;;12.45;;
55913;SDS011;58179;48.776;9.124;2023-08-06T00:52:23;26.15;;;11.63;;
55913;SDS011;58179;48.776;9.124;2023-08-06T00:54:49;25.52;;;11.77;;
55913;SDS011;58179;48.776;9.124;2023-08-06T00:57:16;23.70;;;10.38;;
55913;SDS011;58179;48.776;9.124;2023-08-06T00:59:44;24.50;;;11.10;;
55913;SDS011;58179;48.776;9.124;2023-08-06T01:02:11;25.10;;;10.95;;
55913;SDS011;58179;48.776;9.124;2023-08-06T01:04:37;30.98;;;13.43;;
55913;SDS011;58179;48.776;9.124;2023-08-06T01:07:06;27.05;;;11.07;;
55913;SDS011;58179;48.776;9.124;2023-08-06T01:09:45;26.75;;;11.93;;
55913;SDS011;58179;48.776;9.124;2023-08-06T01:12:21;26.75;;;11.98;;
55913;SDS011;58179;48.776;9.124;2023-08-06T01:15:02;33.17;;;13.35;;
55913;SDS011;58179;48.776;9.124;2023-08-06T01:17:35;27.73;;;11.43;;
55913;SDS011;58179;48.776;9.124;2023-08-06T01:20:03;29.67;;;13.27;;
55913;SDS011;58179;48.776;9.124;2023-08-06T01:22:31;23.90;;;11.60;;
55913;SDS011;58179;48.776;9.124;2023-08-06T01:24:57;23.77;;;11.50;;
55913;SDS011;58179;48.776;9.124;2023-08-06T01:27:24;24.45;;;11.57;;
55913;SDS011;58179;48.776;9.124;2023-08-06T01:29:56;26.67;;;10.73;;
55913;SDS011;58179;48.776;9.124;2023-08-06T01:32:27;24.63;;;10.95;;
55913;SDS011;58179;48.776;9.124;2023-08-06T01:34:57;26.23;;;10.90;;
55913;SDS011;58179;48.776;9.124;2023-08-06T01:37:25;27.48;;;11.98;;
55913;SDS011;58179;48.776;9.124;2023-08-06T01:39:53;24.63;;;11.00;;
55913;SDS011;58179;48.776;9.124;2023-08-06T01:42:20;19.58;;;9.55;;
55913;SDS011;58179;48.776;9.124;2023-08-06T01:44:46;20.55;;;9.75;;
55913;SDS011;58179;48.776;9.124;2023-08-06T01:47:12;19.50;;;9.50;;
55913;SDS011;58179;48.776;9.124;2023-08-06T01:49:38;24.80;;;11.20;;
55913;SDS011;58179;48.776;9.124;2023-08-06T01:52:05;25.85;;;11.23;;
55913;SDS011;58179;48.776;9.124;2023-08-06T01:54:32;26.88;;;11.73;;
55913;SDS011;58179;48.776;9.124;2023-08-06T01:56:59;28.05;;;11.93;;
55913;SDS011;58179;48.776;9.124;2023-08-06T01:59:25;24.00;;;10.90;;
55913;SDS011;58179;48.776;9.124;2023-08-06T02:01:52;22.60;;;11.00;;
55913;SDS011;58179;48.776;9.124;2023-08-06T02:04:18;18.60;;;10.07;;
55913;SDS011;58179;48.776;9.124;2023-08-06T02:06:44;19.88;;;9.35;;
55913;SDS011;58179;48.776;9.124;2023-08-06T02:09:10;18.80;;;9.27;;
55913;SDS011;58179;48.776;9.124;2023-08-06T02:11:36;23.42;;;10.27;;
55913;SDS011;58179;48.776;9.124;2023-08-06T02:14:04;21.08;;;9.18;;
55913;SDS011;58179;48.776;9.124;2023-08-06T02:16:30;24.55;;;10.23;;
55913;SDS011;58179;48.776;9.124;2023-08-06T02:18:56;23.70;;;9.67;;
55913;SDS011;58179;48.776;9.124;2023-08-06T02:21:22;20.17;;;8.88;;
55913;SDS011;58179;48.776;9.124;2023-08-06T02:23:49;23.95;;;9.82;;
55913;SDS011;58179;48.776;9.124;2023-08-06T02:26:15;24.38;;;10.18;;
55913;SDS011;58179;48.776;9.124;2023-08-06T02:28:41;22.48;;;9.20;;
55913;SDS011;58179;48.776;9.124;2023-08-06T02:31:09;22.13;;;8.97;;
55913;SDS011;58179;48.776;9.124;2023-08-06T02:33:35;18.58;;;8.32;;
55913;SDS011;58179;48.776;9.124;2023-08-06T02:36:01;23.70;;;9.30;;
55913;SDS011;58179;48.776;9.124;2023-08-06T02:38:29;28.42;;;10.82;;
55913;SDS011;58179;48.776;9.124;2023-08-06T02:40:55;21.08;;;9.57;;
55913;SDS011;58179;48.776;9.124;2023-08-06T02:43:21;21.83;;;9.82;;
55913;SDS011;58179;48.776;9.124;2023-08-06T02:45:48;27.33;;;10.80;;
55913;SDS011;58179;48.776;9.124;2023-08-06T02:48:15;23.48;;;10.30;;
55913;SDS011;58179;48.776;9.124;2023-08-06T02:50:43;20.98;;;9.18;;
55913;SDS011;58179;48.776;9.124;2023-08-06T02:53:09;21.85;;;9.45;;
55913;SDS011;58179;48.776;9.124;2023-08-06T02:55:36;22.67;;;9.63;;
55913;SDS011;58179;48.776;9.124;2023-08-06T02:58:02;29.02;;;10.68;;
55913;SDS011;58179;48.776;9.124;2023-08-06T03:00:28;24.33;;;9.23;;
55913;SDS011;58179;48.776;9.124;2023-08-06T03:02:54;20.98;;;9.15;;
55913;SDS011;58179;48.776;9.124;2023-08-06T03:05:22;25.60;;;10.73;;
55913;SDS011;58179;48.776;9.124;2023-08-06T03:07:48;24.58;;;9.70;;
55913;SDS011;58179;48.776;9.124;2023-08-06T03:10:14;22.03;;;9.17;;
55913;SDS011;58179;48.776;9.124;2023-08-06T03:12:40;22.05;;;8.90;;
55913;SDS011;58179;48.776;9.124;2023-08-06T03:15:07;17.50;;;7.90;;
55913;SDS011;58179;48.776;9.124;2023-08-06T03:17:34;21.05;;;8.73;;
55913;SDS011;58179;48.776;9.124;2023-08-06T03:20:00;17.85;;;8.05;;
55913;SDS011;58179;48.776;9.124;2023-08-06T03:22:28;17.27;;;8.32;;
55913;SDS011;58179;48.776;9.124;2023-08-06T03:24:54;17.67;;;7.95;;
55913;SDS011;58179;48.776;9.124;2023-08-06T03:27:20;20.50;;;8.52;;
55913;SDS011;58179;48.776;9.124;2023-08-06T03:29:48;18.65;;;8.30;;
55913;SDS011;58179;48.776;9.124;2023-08-06T03:32:15;17.35;;;8.20;;
55913;SDS011;58179;48.776;9.124;2023-08-06T03:34:41;18.67;;;8.20;;
55913;SDS011;58179;48.776;9.124;2023-08-06T03:37:08;16.30;;;7.90;;
55913;SDS011;58179;48.776;9.124;2023-08-06T03:39:35;12.85;;;7.00;;
55913;SDS011;58179;48.776;9.124;2023-08-06T03:42:01;10.63;;;6.18;;
55913;SDS011;58179;48.776;9.124;2023-08-06T03:44:28;17.30;;;7.30;;
55913;SDS011;58179;48.776;9.124;2023-08-06T03:46:54;13.93;;;6.53;;
55913;SDS011;58179;48.776;9.124;2023-08-06T03:49:20;13.85;;;6.35;;
55913;SDS011;58179;48.776;9.124;2023-08-06T03:51:46;12.98;;;6.13;;
55913;SDS011;58179;48.776;9.124;2023-08-06T03:54:12;11.63;;;5.65;;
55913;SDS011;58179;48.776;9.124;2023-08-06T03:56:40;10.60;;;5.80;;
55913;SDS011;58179;48.776;9.124;2023-08-06T03:59:06;13.20;;;6.40;;
55913;SDS011;58179;48.776;9.124;2023-08-06T04:01:32;12.07;;;5.40;;
55913;SDS011;58179;48.776;9.124;2023-08-06T04:03:59;12.13;;;5.80;;
55913;SDS011;58179;48.776;9.124;2023-08-06T04:06:25;10.00;;;4.93;;
55913;SDS011;58179;48.776;9.124;2023-08-06T04:08:51;9.77;;;5.38;;
55913;SDS011;58179;48.776;9.124;2023-08-06T04:11:17;11.93;;;5.65;;
55913;SDS011;58179;48.776;9.124;2023-08-06T04:13:45;11.30;;;5.90;;
55913;SDS011;58179;48.776;9.124;2023-08-06T04:16:11;17.13;;;6.30;;
55913;SDS011;58179;48.776;9.124;2023-08-06T04:18:38;13.48;;;5.80;;
55913;SDS011;58179;48.776;9.124;2023-08-06T04:21:04;13.55;;;5.60;;
55913;SDS011;58179;48.776;9.124;2023-08-06T04:23:30;8.57;;;4.88;;
55913;SDS011;58179;48.776;9.124;2023-08-06T04:25:56;9.55;;;5.03;;
55913;SDS011;58179;48.776;9.124;2023-08-06T04:28:23;18.45;;;7.47;;
55913;SDS011;58179;48.776;9.124;2023-08-06T04:30:50;14.50;;;6.57;;
55913;SDS011;58179;48.776;9.124;2023-08-06T04:33:18;11.82;;;5.70;;
55913;SDS011;58179;48.776;9.124;2023-08-06T04:35:45;11.15;;;5.05;;
55913;SDS011;58179;48.776;9.124;2023-08-06T04:38:11;15.37;;;6.00;;
55913;SDS011;58179;48.776;9.124;2023-08-06T04:40:37;15.10;;;6.15;;
55913;SDS011;58179;48.776;9.124;2023-08-06T04:43:03;18.23;;;6.70;;
55913;SDS011;58179;48.776;9.124;2023-08-06T04:45:30;18.55;;;6.82;;
55913;SDS011;58179;48.776;9.124;2023-08-06T04:47:57;13.82;;;5.90;;
55913;SDS011;58179;48.776;9.124;2023-08-06T04:50:23;13.65;;;5.57;;
55913;SDS011;58179;48.776;9.124;2023-08-06T04:52:50;11.88;;;5.35;;
55913;SDS011;58179;48.776;9.124;2023-08-06T04:55:16;11.73;;;5.35;;
55913;SDS011;58179;48.776;9.124;2023-08-06T04:57:42;9.50;;;4.87;;
55913;SDS011;58179;48.776;9.124;2023-08-06T05:00:08;11.23;;;5.50;;
55913;SDS011;58179;48.776;9.124;2023-08-06T05:02:35;11.85;;;4.82;;
55913;SDS011;58179;48.776;9.124;2023-08-06T05:05:05;9.50;;;4.55;;
55913;SDS011;58179;48.776;9.124;2023-08-06T05:07:31;9.05;;;4.50;;
55913;SDS011;58179;48.776;9.124;2023-08-06T05:09:57;18.33;;;7.68;;
55913;SDS011;58179;48.776;9.124;2023-08-06T05:12:23;16.43;;;6.53;;
55913;SDS011;58179;48.776;9.124;2023-08-06T05:14:50;15.57;;;5.68;;
55913;SDS011;58179;48.776;9.124;2023-08-06T05:17:16;14.40;;;6.40;;
55913;SDS011;58179;48.776;9.124;2023-08-06T05:19:42;13.93;;;5.72;;
55913;SDS011;58179;48.776;9.124;2023-08-06T05:22:10;16.73;;;5.93;;
55913;SDS011;58179;48.776;9.124;2023-08-06T05:24:36;12.05;;;5.25;;
55913;SDS011;58179;48.776;9.124;2023-08-06T05:27:02;16.95;;;5.72;;
55913;SDS011;58179;48.776;9.124;2023-08-06T05:29:29;13.53;;;5.17;;
55913;SDS011;58179;48.776;9.124;2023-08-06T05:31:55;13.57;;;5.18;;
55913;SDS011;58179;48.776;9.124;2023-08-06T05:34:21;11.07;;;4.43;;
55913;SDS011;58179;48.776;9.124;2023-08-06T05:36:47;11.63;;;4.70;;
55913;SDS011;58179;48.776;9.124;2023-08-06T05:39:15;17.40;;;6.10;;
55913;SDS011;58179;48.776;9.124;2023-08-06T05:41:41;13.80;;;5.28;;
55913;SDS011;58179;48.776;9.124;2023-08-06T05:44:07;10.40;;;4.50;;
55913;SDS011;58179;48.776;9.124;2023-08-06T05:46:33;12.33;;;4.67;;
55913;SDS011;58179;48.776;9.124;2023-08-06T05:48:59;9.57;;;3.95;;
55913;SDS011;58179;48.776;9.124;2023-08-06T05:51:26;10.52;;;3.90;;
55913;SDS011;58179;48.776;9.124;2023-08-06T05:53:53;13.48;;;4.57;;
55913;SDS011;58179;48.776;9.124;2023-08-06T05:56:20;9.15;;;3.60;;
55913;SDS011;58179;48.776;9.124;2023-08-06T05:58:47;10.25;;;4.00;;
55913;SDS011;58179;48.776;9.124;2023-08-06T06:01:13;9.57;;;3.70;;
55913;SDS011;58179;48.776;9.124;2023-08-06T06:03:40;8.60;;;3.30;;
55913;SDS011;58179;48.776;9.124;2023-08-06T06:06:06;10.27;;;3.70;;
55913;SDS011;58179;48.776;9.124;2023-08-06T06:08:32;8.90;;;3.33;;
55913;SDS011;58179;48.776;9.124;2023-08-06T06:10:59;7.40;;;3.13;;
55913;SDS011;58179;48.776;9.124;2023-08-06T06:13:26;12.77;;;3.70;;
55913;SDS011;58179;48.776;9.124;2023-08-06T06:15:53;8.67;;;3.00;;
55913;SDS011;58179;48.776;9.124;2023-08-06T06:18:20;5.93;;;2.67;;
55913;SDS011;58179;48.776;9.124;2023-08-06T06:20:47;9.73;;;2.90;;
55913;SDS011;58179;48.776;9.124;2023-08-06T06:23:13;9.73;;;2.92;;
55913;SDS011;58179;48.776;9.124;2023-08-06T06:25:41;6.88;;;2.40;;
55913;SDS011;58179;48.776;9.124;2023-08-06T06:28:08;5.95;;;2.60;;
55913;SDS011;58179;48.776;9.124;2023-08-06T06:30:36;4.28;;;2.40;;
55913;SDS011;58179;48.776;9.124;2023-08-06T06:33:02;8.35;;;2.60;;
55913;SDS011;58179;48.776;9.124;2023-08-06T06:35:28;6.07;;;2.50;;
55913;SDS011;58179;48.776;9.124;2023-08-06T06:37:54;4.00;;;2.23;;
55913;SDS011;58179;48.776;9.124;2023-08-06T06:40:21;7.10;;;2.45;;
55913;SDS011;58179;48.776;9.124;2023-08-06T06:42:47;7.97;;;2.60;;
55913;SDS011;58179;48.776;9.124;2023-08-06T06:45:13;7.35;;;2.50;;
55913;SDS011;58179;48.776;9.124;2023-08-06T06:47:41;5.38;;;2.50;;
55913;SDS011;58179;48.776;9.124;2023-08-06T06:50:07;8.95;;;2.90;;
55913;SDS011;58179;48.776;9.124;2023-08-06T06:52:34;7.10;;;2.60;;
55913;SDS011;58179;48.776;9.124;2023-08-06T06:55:00;7.90;;;2.40;;
55913;SDS011;58179;48.776;9.124;2023-08-06T06:57:26;6.57;;;2.20;;
55913;SDS011;58179;48.776;9.124;2023-08-06T06:59:52;5.90;;;2.13;;
55913;SDS011;58179;48.776;9.124;2023-08-06T07:02:19;4.47;;;2.15;;
55913;SDS011;58179;48.776;9.124;2023-08-06T07:04:46;6.75;;;2.45;;
55913;SDS011;58179;48.776;9.124;2023-08-06T07:07:13;5.93;;;2.33;;
55913;SDS011;58179;48.776;9.124;2023-08-06T07:09:39;5.95;;;2.10;;
55913;SDS011;58179;48.776;9.124;2023-08-06T07:12:05;4.47;;;2.10;;
55913;SDS011;58179;48.776;9.124;2023-08-06T07:14:32;6.65;;;2.25;;
55913;SDS011;58179;48.776;9.124;2023-08-06T07:16:58;3.53;;;2.05;;
55913;SDS011;58179;48.776;9.124;2023-08-06T07:19:24;6.28;;;2.20;;
55913;SDS011;58179;48.776;9.124;2023-08-06T07:21:52;5.53;;;2.00;;
55913;SDS011;58179;48.776;9.124;2023-08-06T07:24:18;3.47;;;1.80;;
55913;SDS011;58179;48.776;9.124;2023-08-06T07:26:44;4.03;;;1.73;;
55913;SDS011;58179;48.776;9.124;2023-08-06T07:29:11;4.30;;;2.08;;
55913;SDS011;58179;48.776;9.124;2023-08-06T07:31:37;4.88;;;2.10;;
55913;SDS011;58179;48.776;9.124;2023-08-06T07:34:03;4.85;;;2.20;;
55913;SDS011;58179;48.776;9.124;2023-08-06T07:36:29;3.38;;;1.90;;
55913;SDS011;58179;48.776;9.124;2023-08-06T07:38:57;5.07;;;1.90;;
55913;SDS011;58179;48.776;9.124;2023-08-06T07:41:23;3.75;;;2.00;;
55913;SDS011;58179;48.776;9.124;2023-08-06T07:43:49;4.97;;;1.80;;
55913;SDS011;58179;48.776;9.124;2023-08-06T07:46:15;5.15;;;1.95;;
55913;SDS011;58179;48.776;9.124;2023-08-06T07:48:42;4.32;;;2.05;;
55913;SDS011;58179;48.776;9.124;2023-08-06T07:51:08;4.18;;;1.90;;
55913;SDS011;58179;48.776;9.124;2023-08-06T07:53:35;5.75;;;1.90;;
55913;SDS011;58179;48.776;9.124;2023-08-06T07:56:02;4.38;;;1.80;;
55913;SDS011;58179;48.776;9.124;2023-08-06T07:58:29;3.70;;;1.50;;
55913;SDS011;58179;48.776;9.124;2023-08-06T08:00:55;6.45;;;1.90;;
55913;SDS011;58179;48.776;9.124;2023-08-06T08:03:21;3.28;;;1.60;;
55913;SDS011;58179;48.776;9.124;2023-08-06T08:05:47;3.47;;;1.70;;
55913;SDS011;58179;48.776;9.124;2023-08-06T08:08:14;2.13;;;1.30;;
55913;SDS011;58179;48.776;9.124;2023-08-06T08:10:40;1.75;;;1.38;;
55913;SDS011;58179;48.776;9.124;2023-08-06T08:13:08;4.55;;;1.38;;
55913;SDS011;58179;48.776;9.124;2023-08-06T08:15:35;2.15;;;1.20;;
55913;SDS011;58179;48.776;9.124;2023-08-06T08:18:01;3.10;;;1.20;;
55913;SDS011;58179;48.776;9.124;2023-08-06T08:20:27;2.95;;;1.20;;
55913;SDS011;58179;48.776;9.124;2023-08-06T08:22:57;2.05;;;1.10;;
55913;SDS011;58179;48.776;9.124;2023-08-06T08:25:24;2.30;;;1.20;;
55913;SDS011;58179;48.776;9.124;2023-08-06T08:27:50;1.02;;;0.90;;
55913;SDS011;58179;48.776;9.124;2023-08-06T08:30:18;1.50;;;0.90;;
55913;SDS011;58179;48.776;9.124;2023-08-06T08:32:44;1.65;;;1.00;;
55913;SDS011;58179;48.776;9.124;2023-08-06T08:35:10;1.48;;;0.82;;
55913;SDS011;58179;48.776;9.124;2023-08-06T08:37:38;2.40;;;0.80;;
55913;SDS011;58179;48.776;9.124;2023-08-06T08:40:04;1.90;;;0.90;;
55913;SDS011;58179;48.776;9.124;2023-08-06T08:42:31;0.90;;;0.82;;
55913;SDS011;58179;48.776;9.124;2023-08-06T08:44:58;0.85;;;0.80;;
55913;SDS011;58179;48.776;9.124;2023-08-06T08:47:26;1.63;;;0.80;;
55913;SDS011;58179;48.776;9.124;2023-08-06T08:49:52;1.50;;;0.90;;
55913;SDS011;58179;48.776;9.124;2023-08-06T08:52:22;1.20;;;0.90;;
55913;SDS011;58179;48.776;9.124;2023-08-06T08:54:50;0.80;;;0.80;;
55913;SDS011;58179;48.776;9.124;2023-08-06T08:57:18;0.70;;;0.70;;
55913;SDS011;58179;48.776;9.124;2023-08-06T08:59:45;1.90;;;1.08;;
55913;SDS011;58179;48.776;9.124;2023-08-06T09:02:12;1.77;;;1.20;;
55913;SDS011;58179;48.776;9.124;2023-08-06T09:04:41;0.80;;;0.75;;
55913;SDS011;58179;48.776;9.124;2023-08-06T09:07:09;2.13;;;0.80;;
55913;SDS011;58179;48.776;9.124;2023-08-06T09:09:38;1.45;;;0.90;;
55913;SDS011;58179;48.776;9.124;2023-08-06T09:12:10;2.10;;;0.70;;
55913;SDS011;58179;48.776;9.124;2023-08-06T09:14:39;0.80;;;0.80;;
55913;SDS011;58179;48.776;9.124;2023-08-06T09:17:05;0.80;;;0.80;;
55913;SDS011;58179;48.776;9.124;2023-08-06T09:19:32;0.95;;;0.70;;
55913;SDS011;58179;48.776;9.124;2023-08-06T09:22:00;2.28;;;0.63;;
55913;SDS011;58179;48.776;9.124;2023-08-06T09:24:26;0.70;;;0.70;;
55913;SDS011;58179;48.776;9.124;2023-08-06T09:26:52;1.02;;;0.70;;
55913;SDS011;58179;48.776;9.124;2023-08-06T09:29:19;0.60;;;0.60;;
55913;SDS011;58179;48.776;9.124;2023-08-06T09:31:46;0.90;;;0.70;;
55913;SDS011;58179;48.776;9.124;2023-08-06T09:34:15;0.50;;;0.50;;
55913;SDS011;58179;48.776;9.124;2023-08-06T09:36:41;0.80;;;0.60;;
55913;SDS011;58179;48.776;9.124;2023-08-06T09:39:15;0.73;;;0.70;;
55913;SDS011;58179;48.776;9.124;2023-08-06T09:41:42;0.93;;;0.70;;
55913;SDS011;58179;48.776;9.124;2023-08-06T09:44:15;0.70;;;0.70;;
55913;SDS011;58179;48.776;9.124;2023-08-06T09:46:49;0.70;;;0.60;;
55913;SDS011;58179;48.776;9.124;2023-08-06T09:49:17;0.70;;;0.70;;
55913;SDS011;58179;48.776;9.124;2023-08-06T09:51:44;0.80;;;0.80;;
55913;SDS011;58179;48.776;9.124;2023-08-06T09:54:12;0.60;;;0.60;;
55913;SDS011;58179;48.776;9.124;2023-08-06T09:56:40;0.68;;;0.68;;
55913;SDS011;58179;48.776;9.124;2023-08-06T09:59:08;0.60;;;0.60;;
55913;SDS011;58179;48.776;9.124;2023-08-06T10:01:36;0.80;;;0.70;;
55913;SDS011;58179;48.776;9.124;2023-08-06T10:04:02;0.70;;;0.70;;
55913;SDS011;58179;48.776;9.124;2023-08-06T10:06:31;0.70;;;0.70;;
55913;SDS011;58179;48.776;9.124;2023-08-06T10:09:01;0.70;;;0.70;;
55913;SDS011;58179;48.776;9.124;2023-08-06T10:11:28;1.60;;;0.63;;
55913;SDS011;58179;48.776;9.124;2023-08-06T10:13:57;0.73;;;0.73;;
55913;SDS011;58179;48.776;9.124;2023-08-06T10:16:28;0.70;;;0.70;;
55913;SDS011;58179;48.776;9.124;2023-08-06T10:18:54;0.60;;;0.60;;
55913;SDS011;58179;48.776;9.124;2023-08-06T10:21:23;0.70;;;0.70;;
55913;SDS011;58179;48.776;9.124;2023-08-06T10:23:53;0.75;;;0.75;;
55913;SDS011;58179;48.776;9.124;2023-08-06T10:26:19;0.75;;;0.75;;
55913;SDS011;58179;48.776;9.124;2023-08-06T10:28:51;0.70;;;0.70;;
55913;SDS011;58179;48.776;9.124;2023-08-06T10:31:17;0.60;;;0.60;;
55913;SDS011;58179;48.776;9.124;2023-08-06T10:33:44;0.95;;;0.70;;
55913;SDS011;58179;48.776;9.124;2023-08-06T10:36:12;1.20;;;0.90;;
55913;SDS011;58179;48.776;9.124;2023-08-06T10:38:45;0.80;;;0.70;;
55913;SDS011;58179;48.776;9.124;2023-08-06T10:41:17;0.65;;;0.60;;
55913;SDS011;58179;48.776;9.124;2023-08-06T10:43:48;0.90;;;0.70;;
55913;SDS011;58179;48.776;9.124;2023-08-06T10:46:22;0.70;;;0.70;;
55913;SDS011;58179;48.776;9.124;2023-08-06T10:48:52;0.70;;;0.70;;
55913;SDS011;58179;48.776;9.124;2023-08-06T10:51:19;0.70;;;0.70;;
55913;SDS011;58179;48.776;9.124;2023-08-06T10:53:45;1.48;;;0.70;;
55913;SDS011;58179;48.776;9.124;2023-08-06T10:56:12;0.82;;;0.68;;
55913;SDS011;58179;48.776;9.124;2023-08-06T10:58:39;2.58;;;0.70;;
55913;SDS011;58179;48.776;9.124;2023-08-06T11:01:07;2.25;;;0.85;;
55913;SDS011;58179;48.776;9.124;2023-08-06T11:03:34;0.80;;;0.80;;
55913;SDS011;58179;48.776;9.124;2023-08-06T11:06:00;1.55;;;0.90;;
55913;SDS011;58179;48.776;9.124;2023-08-06T11:08:28;0.98;;;0.88;;
55913;SDS011;58179;48.776;9.124;2023-08-06T11:11:07;2.37;;;1.13;;
55913;SDS011;58179;48.776;9.124;2023-08-06T11:13:35;2.13;;;1.10;;
55913;SDS011;58179;48.776;9.124;2023-08-06T11:16:02;3.05;;;1.30;;
55913;SDS011;58179;48.776;9.124;2023-08-06T11:18:30;2.23;;;1.23;;
55913;SDS011;58179;48.776;9.124;2023-08-06T11:20:58;2.27;;;1.40;;
55913;SDS011;58179;48.776;9.124;2023-08-06T11:23:25;2.08;;;1.33;;
55913;SDS011;58179;48.776;9.124;2023-08-06T11:25:53;4.00;;;1.77;;
55913;SDS011;58179;48.776;9.124;2023-08-06T11:28:20;3.28;;;1.50;;
55913;SDS011;58179;48.776;9.124;2023-08-06T11:30:50;3.28;;;1.70;;
55913;SDS011;58179;48.776;9.124;2023-08-06T11:33:19;3.78;;;1.98;;
55913;SDS011;58179;48.776;9.124;2023-08-06T11:35:48;4.65;;;2.03;;
55913;SDS011;58179;48.776;9.124;2023-08-06T11:38:14;5.10;;;2.25;;
55913;SDS011;58179;48.776;9.124;2023-08-06T11:40:43;5.28;;;2.38;;
55913;SDS011;58179;48.776;9.124;2023-08-06T11:43:09;5.82;;;2.67;;
55913;SDS011;58179;48.776;9.124;2023-08-06T11:45:36;4.60;;;2.70;;
55913;SDS011;58179;48.776;9.124;2023-08-06T11:48:02;6.68;;;3.10;;
55913;SDS011;58179;48.776;9.124;2023-08-06T11:50:29;9.05;;;3.40;;
55913;SDS011;58179;48.776;9.124;2023-08-06T11:52:57;9.67;;;3.20;;
55913;SDS011;58179;48.776;9.124;2023-08-06T11:55:25;7.43;;;3.38;;
55913;SDS011;58179;48.776;9.124;2023-08-06T11:57:53;7.87;;;3.20;;
55913;SDS011;58179;48.776;9.124;2023-08-06T12:00:20;10.40;;;4.07;;
55913;SDS011;58179;48.776;9.124;2023-08-06T12:02:48;10.20;;;3.45;;
55913;SDS011;58179;48.776;9.124;2023-08-06T12:05:15;10.70;;;3.67;;
55913;SDS011;58179;48.776;9.124;2023-08-06T12:07:45;9.70;;;3.77;;
55913;SDS011;58179;48.776;9.124;2023-08-06T12:10:14;10.30;;;4.00;;
55913;SDS011;58179;48.776;9.124;2023-08-06T12:12:41;9.88;;;3.70;;
55913;SDS011;58179;48.776;9.124;2023-08-06T12:15:08;7.85;;;3.63;;
55913;SDS011;58179;48.776;9.124;2023-08-06T12:17:35;12.80;;;4.10;;
55913;SDS011;58179;48.776;9.124;2023-08-06T12:20:02;11.67;;;4.40;;
55913;SDS011;58179;48.776;9.124;2023-08-06T12:22:32;12.40;;;4.20;;
55913;SDS011;58179;48.776;9.124;2023-08-06T12:25:04;12.70;;;4.78;;
55913;SDS011;58179;48.776;9.124;2023-08-06T12:27:34;11.63;;;4.40;;
55913;SDS011;58179;48.776;9.124;2023-08-06T12:30:00;8.30;;;3.72;;
55913;SDS011;58179;48.776;9.124;2023-08-06T12:32:27;11.73;;;4.43;;
55913;SDS011;58179;48.776;9.124;2023-08-06T12:34:53;11.70;;;4.05;;
55913;SDS011;58179;48.776;9.124;2023-08-06T12:37:19;7.35;;;3.60;;
55913;SDS011;58179;48.776;9.124;2023-08-06T12:39:45;4.70;;;2.77;;
55913;SDS011;58179;48.776;9.124;2023-08-06T12:42:12;6.68;;;3.08;;
55913;SDS011;58179;48.776;9.124;2023-08-06T12:44:39;8.25;;;2.65;;
55913;SDS011;58179;48.776;9.124;2023-08-06T12:47:06;6.90;;;2.27;;
55913;SDS011;58179;48.776;9.124;2023-08-06T12:49:32;4.10;;;1.90;;
55913;SDS011;58179;48.776;9.124;2023-08-06T12:51:59;5.88;;;1.98;;
55913;SDS011;58179;48.776;9.124;2023-08-06T12:54:25;2.28;;;1.60;;
55913;SDS011;58179;48.776;9.124;2023-08-06T12:56:52;4.43;;;1.45;;
55913;SDS011;58179;48.776;9.124;2023-08-06T12:59:18;2.05;;;1.40;;
55913;SDS011;58179;48.776;9.124;2023-08-06T13:01:46;2.85;;;1.50;;
55913;SDS011;58179;48.776;9.124;2023-08-06T13:04:13;2.13;;;1.40;;
55913;SDS011;58179;48.776;9.124;2023-08-06T13:06:40;3.28;;;1.40;;
55913;SDS011;58179;48.776;9.124;2023-08-06T13:09:06;2.67;;;1.60;;
55913;SDS011;58179;48.776;9.124;2023-08-06T13:11:33;3.28;;;1.65;;
55913;SDS011;58179;48.776;9.124;2023-08-06T13:14:03;4.10;;;1.70;;
55913;SDS011;58179;48.776;9.124;2023-08-06T13:16:31;5.35;;;1.80;;
55913;SDS011;58179;48.776;9.124;2023-08-06T13:18:58;3.97;;;1.67;;
55913;SDS011;58179;48.776;9.124;2023-08-06T13:21:30;3.03;;;1.75;;
55913;SDS011;58179;48.776;9.124;2023-08-06T13:23:58;3.85;;;1.90;;
55913;SDS011;58179;48.776;9.124;2023-08-06T13:26:24;4.10;;;1.80;;
55913;SDS011;58179;48.776;9.124;2023-08-06T13:28:50;2.60;;;1.60;;
55913;SDS011;58179;48.776;9.124;2023-08-06T13:31:16;3.20;;;1.70;;
55913;SDS011;58179;48.776;9.124;2023-08-06T13:33:42;6.60;;;1.58;;
55913;SDS011;58179;48.776;9.124;2023-08-06T13:36:10;2.53;;;1.50;;
55913;SDS011;58179;48.776;9.124;2023-08-06T13:38:36;2.60;;;1.40;;
55913;SDS011;58179;48.776;9.124;2023-08-06T13:41:02;2.60;;;1.40;;
55913;SDS011;58179;48.776;9.124;2023-08-06T13:43:30;2.63;;;1.45;;
55913;SDS011;58179;48.776;9.124;2023-08-06T13:45:56;2.58;;;1.30;;
55913;SDS011;58179;48.776;9.124;2023-08-06T13:48:22;5.07;;;1.60;;
55913;SDS011;58179;48.776;9.124;2023-08-06T13:50:49;1.98;;;1.50;;
55913;SDS011;58179;48.776;9.124;2023-08-06T13:53:16;2.50;;;1.40;;
55913;SDS011;58179;48.776;9.124;2023-08-06T13:55:42;3.67;;;1.80;;
55913;SDS011;58179;48.776;9.124;2023-08-06T13:58:09;1.50;;;1.30;;
55913;SDS011;58179;48.776;9.124;2023-08-06T14:00:35;1.65;;;1.25;;
55913;SDS011;58179;48.776;9.124;2023-08-06T14:03:01;1.40;;;1.30;;
55913;SDS011;58179;48.776;9.124;2023-08-06T14:05:27;1.33;;;1.20;;
55913;SDS011;58179;48.776;9.124;2023-08-06T14:07:54;1.20;;;1.10;;
55913;SDS011;58179;48.776;9.124;2023-08-06T14:10:21;1.77;;;1.23;;
55913;SDS011;58179;48.776;9.124;2023-08-06T14:12:48;2.38;;;1.55;;
55913;SDS011;58179;48.776;9.124;2023-08-06T14:15:14;3.05;;;1.40;;
55913;SDS011;58179;48.776;9.124;2023-08-06T14:17:40;1.45;;;1.17;;
55913;SDS011;58179;48.776;9.124;2023-08-06T14:20:07;3.38;;;1.20;;
55913;SDS011;58179;48.776;9.124;2023-08-06T14:22:36;1.50;;;1.30;;
55913;SDS011;58179;48.776;9.124;2023-08-06T14:25:03;1.30;;;1.10;;
55913;SDS011;58179;48.776;9.124;2023-08-06T14:27:31;2.95;;;1.25;;
55913;SDS011;58179;48.776;9.124;2023-08-06T14:29:57;2.40;;;1.50;;
55913;SDS011;58179;48.776;9.124;2023-08-06T14:32:23;1.90;;;1.40;;
55913;SDS011;58179;48.776;9.124;2023-08-06T14:34:51;1.83;;;1.23;;
55913;SDS011;58179;48.776;9.124;2023-08-06T14:37:17;2.45;;;1.20;;
55913;SDS011;58179;48.776;9.124;2023-08-06T14:39:43;4.22;;;1.40;;